sensor_id;sensor_type;location;lat;lon;timestamp;temperature;humidity
13256;DHT22;37913;48.370;10.930;2023-06-19T00:01:36;19.90;93.10
13256;DHT22;37913;48.370;10.930;2023-06-19T00:04:03;19.80;92.80
13256;DHT22;37913;48.370;10.930;2023-06-19T00:06:30;19.80;93.00
13256;DHT22;37913;48.370;10.930;2023-06-19T00:08:57;19.80;93.00
13256;DHT22;37913;48.370;10.930;2023-06-19T00:11:25;19.70;92.90
13256;DHT22;37913;48.370;10.930;2023-06-19T00:13:52;19.70;93.40
13256;DHT22;37913;48.370;10.930;2023-06-19T00:16:19;19.70;93.70
13256;DHT22;37913;48.370;10.930;2023-06-19T00:18:46;19.60;93.90
13256;DHT22;37913;48.370;10.930;2023-06-19T00:21:13;19.50;94.00
13256;DHT22;37913;48.370;10.930;2023-06-19T00:23:40;19.50;94.30
13256;DHT22;37913;48.370;10.930;2023-06-19T00:26:07;19.40;94.50
13256;DHT22;37913;48.370;10.930;2023-06-19T00:28:35;19.30;94.10
13256;DHT22;37913;48.370;10.930;2023-06-19T00:31:04;19.20;94.00
13256;DHT22;37913;48.370;10.930;2023-06-19T00:33:32;19.30;93.90
13256;DHT22;37913;48.370;10.930;2023-06-19T00:35:59;19.20;94.20
13256;DHT22;37913;48.370;10.930;2023-06-19T00:38:26;19.20;94.50
13256;DHT22;37913;48.370;10.930;2023-06-19T00:40:53;19.20;94.50
13256;DHT22;37913;48.370;10.930;2023-06-19T00:43:21;19.20;94.80
13256;DHT22;37913;48.370;10.930;2023-06-19T00:45:50;19.10;94.90
13256;DHT22;37913;48.370;10.930;2023-06-19T00:48:17;19.00;95.00
13256;DHT22;37913;48.370;10.930;2023-06-19T00:50:44;18.90;95.10
13256;DHT22;37913;48.370;10.930;2023-06-19T00:53:11;18.80;95.70
13256;DHT22;37913;48.370;10.930;2023-06-19T00:55:38;18.80;96.00
13256;DHT22;37913;48.370;10.930;2023-06-19T00:58:06;18.80;96.10
13256;DHT22;37913;48.370;10.930;2023-06-19T01:00:33;18.90;96.10
13256;DHT22;37913;48.370;10.930;2023-06-19T01:03:01;18.90;96.20
13256;DHT22;37913;48.370;10.930;2023-06-19T01:05:28;18.80;96.40
13256;DHT22;37913;48.370;10.930;2023-06-19T01:07:59;18.80;96.50
13256;DHT22;37913;48.370;10.930;2023-06-19T01:10:29;18.70;96.90
13256;DHT22;37913;48.370;10.930;2023-06-19T01:13:08;18.60;97.30
13256;DHT22;37913;48.370;10.930;2023-06-19T01:15:38;18.60;97.50
13256;DHT22;37913;48.370;10.930;2023-06-19T01:18:08;18.60;97.40
13256;DHT22;37913;48.370;10.930;2023-06-19T01:20:37;18.60;97.40
13256;DHT22;37913;48.370;10.930;2023-06-19T01:23:09;18.60;97.10
13256;DHT22;37913;48.370;10.930;2023-06-19T01:25:37;18.60;97.00
13256;DHT22;37913;48.370;10.930;2023-06-19T01:28:07;18.60;97.00
13256;DHT22;37913;48.370;10.930;2023-06-19T01:30:37;18.60;96.70
13256;DHT22;37913;48.370;10.930;2023-06-19T01:33:09;18.60;96.70
13256;DHT22;37913;48.370;10.930;2023-06-19T01:35:38;18.60;96.70
13256;DHT22;37913;48.370;10.930;2023-06-19T01:38:08;18.60;96.90
13256;DHT22;37913;48.370;10.930;2023-06-19T01:40:37;18.60;97.10
13256;DHT22;37913;48.370;10.930;2023-06-19T01:43:04;18.70;97.00
13256;DHT22;37913;48.370;10.930;2023-06-19T01:45:32;18.60;96.90
13256;DHT22;37913;48.370;10.930;2023-06-19T01:47:59;18.70;96.60
13256;DHT22;37913;48.370;10.930;2023-06-19T01:50:26;18.70;96.50
13256;DHT22;37913;48.370;10.930;2023-06-19T01:52:53;18.70;96.50
13256;DHT22;37913;48.370;10.930;2023-06-19T01:55:21;18.70;96.60
13256;DHT22;37913;48.370;10.930;2023-06-19T01:57:48;18.70;96.50
13256;DHT22;37913;48.370;10.930;2023-06-19T02:00:16;18.70;96.70
13256;DHT22;37913;48.370;10.930;2023-06-19T02:02:43;18.60;96.80
13256;DHT22;37913;48.370;10.930;2023-06-19T02:05:11;18.60;96.90
13256;DHT22;37913;48.370;10.930;2023-06-19T02:07:38;18.60;97.00
13256;DHT22;37913;48.370;10.930;2023-06-19T02:10:06;18.60;97.30
13256;DHT22;37913;48.370;10.930;2023-06-19T02:12:35;18.60;97.60
13256;DHT22;37913;48.370;10.930;2023-06-19T02:15:02;18.60;98.00
13256;DHT22;37913;48.370;10.930;2023-06-19T02:17:29;19.90;98.90
13256;DHT22;37913;48.370;10.930;2023-06-19T02:19:56;18.60;98.40
13256;DHT22;37913;48.370;10.930;2023-06-19T02:22:23;18.60;98.70
13256;DHT22;37913;48.370;10.930;2023-06-19T02:24:50;18.60;98.90
13256;DHT22;37913;48.370;10.930;2023-06-19T02:27:17;18.60;98.90
13256;DHT22;37913;48.370;10.930;2023-06-19T02:29:45;18.60;99.00
13256;DHT22;37913;48.370;10.930;2023-06-19T02:32:12;18.60;99.20
13256;DHT22;37913;48.370;10.930;2023-06-19T02:34:39;18.70;99.40
13256;DHT22;37913;48.370;10.930;2023-06-19T02:37:06;18.60;99.50
13256;DHT22;37913;48.370;10.930;2023-06-19T02:39:33;18.60;99.70
13256;DHT22;37913;48.370;10.930;2023-06-19T02:42:00;18.60;99.90
13256;DHT22;37913;48.370;10.930;2023-06-19T02:44:27;18.60;99.90
13256;DHT22;37913;48.370;10.930;2023-06-19T02:46:55;18.50;99.90
13256;DHT22;37913;48.370;10.930;2023-06-19T02:49:22;18.50;99.90
13256;DHT22;37913;48.370;10.930;2023-06-19T02:51:49;18.50;99.90
13256;DHT22;37913;48.370;10.930;2023-06-19T02:54:16;18.50;99.90
13256;DHT22;37913;48.370;10.930;2023-06-19T02:56:43;18.50;99.90
13256;DHT22;37913;48.370;10.930;2023-06-19T02:59:10;18.40;99.90
13256;DHT22;37913;48.370;10.930;2023-06-19T03:01:37;18.40;99.90
13256;DHT22;37913;48.370;10.930;2023-06-19T03:04:05;18.50;99.90
13256;DHT22;37913;48.370;10.930;2023-06-19T03:06:32;18.50;99.90
13256;DHT22;37913;48.370;10.930;2023-06-19T03:09:05;18.40;99.90
13256;DHT22;37913;48.370;10.930;2023-06-19T03:11:37;18.40;99.90
13256;DHT22;37913;48.370;10.930;2023-06-19T03:14:04;18.30;99.90
13256;DHT22;37913;48.370;10.930;2023-06-19T03:16:33;18.30;99.90
13256;DHT22;37913;48.370;10.930;2023-06-19T03:19:00;18.30;99.90
13256;DHT22;37913;48.370;10.930;2023-06-19T03:21:28;18.30;99.90
13256;DHT22;37913;48.370;10.930;2023-06-19T03:23:55;18.30;99.90
13256;DHT22;37913;48.370;10.930;2023-06-19T03:26:23;18.30;99.90
13256;DHT22;37913;48.370;10.930;2023-06-19T03:28:50;18.30;99.90
13256;DHT22;37913;48.370;10.930;2023-06-19T03:31:17;18.50;99.90
13256;DHT22;37913;48.370;10.930;2023-06-19T03:33:44;18.50;99.90
13256;DHT22;37913;48.370;10.930;2023-06-19T03:36:10;18.50;99.90
13256;DHT22;37913;48.370;10.930;2023-06-19T03:38:39;18.50;99.90
13256;DHT22;37913;48.370;10.930;2023-06-19T03:41:06;18.50;99.90
13256;DHT22;37913;48.370;10.930;2023-06-19T03:43:32;18.50;99.90
13256;DHT22;37913;48.370;10.930;2023-06-19T03:45:59;18.60;99.90
13256;DHT22;37913;48.370;10.930;2023-06-19T03:48:27;18.60;99.90
13256;DHT22;37913;48.370;10.930;2023-06-19T03:50:54;18.70;99.90
13256;DHT22;37913;48.370;10.930;2023-06-19T03:53:21;18.70;99.90
13256;DHT22;37913;48.370;10.930;2023-06-19T03:55:49;18.70;99.90
13256;DHT22;37913;48.370;10.930;2023-06-19T03:58:16;18.80;99.90
13256;DHT22;37913;48.370;10.930;2023-06-19T04:00:43;18.90;99.90
13256;DHT22;37913;48.370;10.930;2023-06-19T04:03:09;18.90;99.90
13256;DHT22;37913;48.370;10.930;2023-06-19T04:05:36;19.00;99.90
13256;DHT22;37913;48.370;10.930;2023-06-19T04:08:04;19.00;99.90
13256;DHT22;37913;48.370;10.930;2023-06-19T04:10:31;19.20;99.90
13256;DHT22;37913;48.370;10.930;2023-06-19T04:12:59;19.30;99.90
13256;DHT22;37913;48.370;10.930;2023-06-19T04:15:26;19.30;99.90
13256;DHT22;37913;48.370;10.930;2023-06-19T04:17:59;19.50;99.90
13256;DHT22;37913;48.370;10.930;2023-06-19T04:20:26;19.60;99.90
13256;DHT22;37913;48.370;10.930;2023-06-19T04:22:53;19.70;99.90
13256;DHT22;37913;48.370;10.930;2023-06-19T04:25:20;19.70;99.90
13256;DHT22;37913;48.370;10.930;2023-06-19T04:27:47;19.70;99.90
13256;DHT22;37913;48.370;10.930;2023-06-19T04:30:15;19.80;99.90
13256;DHT22;37913;48.370;10.930;2023-06-19T04:32:42;19.80;99.90
13256;DHT22;37913;48.370;10.930;2023-06-19T04:35:09;19.80;99.90
13256;DHT22;37913;48.370;10.930;2023-06-19T04:37:36;19.80;99.90
13256;DHT22;37913;48.370;10.930;2023-06-19T04:40:04;19.80;99.90
13256;DHT22;37913;48.370;10.930;2023-06-19T04:42:32;19.90;99.90
13256;DHT22;37913;48.370;10.930;2023-06-19T04:44:59;19.90;99.90
13256;DHT22;37913;48.370;10.930;2023-06-19T04:47:28;19.90;99.90
13256;DHT22;37913;48.370;10.930;2023-06-19T04:49:54;19.90;99.90
13256;DHT22;37913;48.370;10.930;2023-06-19T04:52:21;19.90;99.90
13256;DHT22;37913;48.370;10.930;2023-06-19T04:54:49;19.90;99.90
13256;DHT22;37913;48.370;10.930;2023-06-19T04:57:16;20.60;99.90
13256;DHT22;37913;48.370;10.930;2023-06-19T04:59:43;20.10;99.90
13256;DHT22;37913;48.370;10.930;2023-06-19T05:02:11;20.20;99.90
13256;DHT22;37913;48.370;10.930;2023-06-19T05:04:39;20.20;99.90
13256;DHT22;37913;48.370;10.930;2023-06-19T05:07:08;20.30;99.90
13256;DHT22;37913;48.370;10.930;2023-06-19T05:09:36;20.40;99.90
13256;DHT22;37913;48.370;10.930;2023-06-19T05:12:03;20.60;99.90
13256;DHT22;37913;48.370;10.930;2023-06-19T05:14:30;20.80;99.90
13256;DHT22;37913;48.370;10.930;2023-06-19T05:16:57;21.00;99.90
13256;DHT22;37913;48.370;10.930;2023-06-19T05:19:27;21.30;99.90
13256;DHT22;37913;48.370;10.930;2023-06-19T05:21:55;21.50;99.90
13256;DHT22;37913;48.370;10.930;2023-06-19T05:24:22;21.60;99.90
13256;DHT22;37913;48.370;10.930;2023-06-19T05:26:49;21.50;99.90
13256;DHT22;37913;48.370;10.930;2023-06-19T05:29:16;21.40;99.90
13256;DHT22;37913;48.370;10.930;2023-06-19T05:31:43;21.40;99.90
13256;DHT22;37913;48.370;10.930;2023-06-19T05:34:10;21.20;99.90
13256;DHT22;37913;48.370;10.930;2023-06-19T05:36:37;21.20;99.90
13256;DHT22;37913;48.370;10.930;2023-06-19T05:39:05;21.40;99.90
13256;DHT22;37913;48.370;10.930;2023-06-19T05:41:32;21.40;99.90
13256;DHT22;37913;48.370;10.930;2023-06-19T05:43:59;21.50;99.80
13256;DHT22;37913;48.370;10.930;2023-06-19T05:46:27;21.80;99.80
13256;DHT22;37913;48.370;10.930;2023-06-19T05:48:55;22.00;99.30
13256;DHT22;37913;48.370;10.930;2023-06-19T05:51:22;22.30;99.20
13256;DHT22;37913;48.370;10.930;2023-06-19T05:53:49;22.80;98.20
13256;DHT22;37913;48.370;10.930;2023-06-19T05:56:17;23.10;98.00
13256;DHT22;37913;48.370;10.930;2023-06-19T05:58:44;23.60;97.00
13256;DHT22;37913;48.370;10.930;2023-06-19T06:01:11;24.20;96.20
13256;DHT22;37913;48.370;10.930;2023-06-19T06:03:38;24.70;95.60
13256;DHT22;37913;48.370;10.930;2023-06-19T06:06:05;24.70;95.40
13256;DHT22;37913;48.370;10.930;2023-06-19T06:08:32;24.00;95.50
13256;DHT22;37913;48.370;10.930;2023-06-19T06:11:00;23.90;96.40
13256;DHT22;37913;48.370;10.930;2023-06-19T06:13:28;24.00;96.10
13256;DHT22;37913;48.370;10.930;2023-06-19T06:15:55;24.10;96.10
13256;DHT22;37913;48.370;10.930;2023-06-19T06:18:22;24.60;95.40
13256;DHT22;37913;48.370;10.930;2023-06-19T06:20:49;24.30;95.20
13256;DHT22;37913;48.370;10.930;2023-06-19T06:23:16;23.70;96.00
13256;DHT22;37913;48.370;10.930;2023-06-19T06:25:42;23.20;96.60
13256;DHT22;37913;48.370;10.930;2023-06-19T06:28:11;23.70;96.80
13256;DHT22;37913;48.370;10.930;2023-06-19T06:30:39;24.40;96.10
13256;DHT22;37913;48.370;10.930;2023-06-19T06:33:06;24.90;95.50
13256;DHT22;37913;48.370;10.930;2023-06-19T06:35:33;25.20;95.10
13256;DHT22;37913;48.370;10.930;2023-06-19T06:38:01;25.20;95.00
13256;DHT22;37913;48.370;10.930;2023-06-19T06:40:28;25.00;95.30
13256;DHT22;37913;48.370;10.930;2023-06-19T06:42:55;25.20;95.30
13256;DHT22;37913;48.370;10.930;2023-06-19T06:45:22;25.10;95.20
13256;DHT22;37913;48.370;10.930;2023-06-19T06:47:50;25.00;95.30
13256;DHT22;37913;48.370;10.930;2023-06-19T06:50:18;25.10;95.30
13256;DHT22;37913;48.370;10.930;2023-06-19T06:52:45;25.20;95.10
13256;DHT22;37913;48.370;10.930;2023-06-19T06:55:11;25.10;95.10
13256;DHT22;37913;48.370;10.930;2023-06-19T06:57:39;24.90;95.50
13256;DHT22;37913;48.370;10.930;2023-06-19T07:00:08;25.20;95.10
13256;DHT22;37913;48.370;10.930;2023-06-19T07:02:38;25.20;95.00
13256;DHT22;37913;48.370;10.930;2023-06-19T07:05:08;24.80;95.30
13256;DHT22;37913;48.370;10.930;2023-06-19T07:07:37;24.90;95.30
13256;DHT22;37913;48.370;10.930;2023-06-19T07:10:05;25.60;94.70
13256;DHT22;37913;48.370;10.930;2023-06-19T07:12:33;26.40;93.70
13256;DHT22;37913;48.370;10.930;2023-06-19T07:15:01;25.80;93.40
13256;DHT22;37913;48.370;10.930;2023-06-19T07:17:28;25.90;94.20
13256;DHT22;37913;48.370;10.930;2023-06-19T07:19:56;25.70;94.20
13256;DHT22;37913;48.370;10.930;2023-06-19T07:22:25;25.70;94.30
13256;DHT22;37913;48.370;10.930;2023-06-19T07:24:55;25.50;94.90
13256;DHT22;37913;48.370;10.930;2023-06-19T07:27:22;25.50;94.00
13256;DHT22;37913;48.370;10.930;2023-06-19T07:29:53;25.10;94.40
13256;DHT22;37913;48.370;10.930;2023-06-19T07:32:20;25.70;94.00
13256;DHT22;37913;48.370;10.930;2023-06-19T07:34:47;25.70;93.30
13256;DHT22;37913;48.370;10.930;2023-06-19T07:37:14;25.40;93.90
13256;DHT22;37913;48.370;10.930;2023-06-19T07:39:44;25.00;94.80
13256;DHT22;37913;48.370;10.930;2023-06-19T07:42:13;25.10;94.90
13256;DHT22;37913;48.370;10.930;2023-06-19T07:44:43;24.90;94.60
13256;DHT22;37913;48.370;10.930;2023-06-19T07:47:10;24.90;94.30
13256;DHT22;37913;48.370;10.930;2023-06-19T07:49:38;24.20;95.40
13256;DHT22;37913;48.370;10.930;2023-06-19T07:52:08;23.90;95.70
13256;DHT22;37913;48.370;10.930;2023-06-19T07:54:36;24.10;95.70
13256;DHT22;37913;48.370;10.930;2023-06-19T07:57:06;24.10;95.80
13256;DHT22;37913;48.370;10.930;2023-06-19T07:59:33;24.20;95.50
13256;DHT22;37913;48.370;10.930;2023-06-19T08:02:03;24.30;95.60
13256;DHT22;37913;48.370;10.930;2023-06-19T08:04:30;24.40;95.80
13256;DHT22;37913;48.370;10.930;2023-06-19T08:06:59;24.20;96.20
13256;DHT22;37913;48.370;10.930;2023-06-19T08:09:26;24.50;96.20
13256;DHT22;37913;48.370;10.930;2023-06-19T08:11:54;24.90;96.00
13256;DHT22;37913;48.370;10.930;2023-06-19T08:14:22;25.10;95.60
13256;DHT22;37913;48.370;10.930;2023-06-19T08:16:49;25.30;95.30
13256;DHT22;37913;48.370;10.930;2023-06-19T08:19:16;24.70;95.40
13256;DHT22;37913;48.370;10.930;2023-06-19T08:21:44;24.50;96.00
13256;DHT22;37913;48.370;10.930;2023-06-19T08:24:11;24.90;96.10
13256;DHT22;37913;48.370;10.930;2023-06-19T08:26:39;25.20;95.60
13256;DHT22;37913;48.370;10.930;2023-06-19T08:29:06;26.00;95.10
13256;DHT22;37913;48.370;10.930;2023-06-19T08:31:43;26.30;94.90
13256;DHT22;37913;48.370;10.930;2023-06-19T08:34:10;29.00;92.00
13256;DHT22;37913;48.370;10.930;2023-06-19T08:36:37;30.60;90.20
13256;DHT22;37913;48.370;10.930;2023-06-19T08:39:13;28.90;90.20
13256;DHT22;37913;48.370;10.930;2023-06-19T08:41:47;28.00;91.30
13256;DHT22;37913;48.370;10.930;2023-06-19T08:44:14;27.80;91.20
13256;DHT22;37913;48.370;10.930;2023-06-19T08:49:42;27.10;93.10
13256;DHT22;37913;48.370;10.930;2023-06-19T08:52:22;28.20;92.40
13256;DHT22;37913;48.370;10.930;2023-06-19T08:54:50;29.00;91.00
13256;DHT22;37913;48.370;10.930;2023-06-19T08:57:19;28.50;91.10
13256;DHT22;37913;48.370;10.930;2023-06-19T08:59:50;28.80;90.90
13256;DHT22;37913;48.370;10.930;2023-06-19T09:02:23;28.90;90.00
13256;DHT22;37913;48.370;10.930;2023-06-19T09:04:54;28.50;91.40
13256;DHT22;37913;48.370;10.930;2023-06-19T09:07:21;29.10;90.50
13256;DHT22;37913;48.370;10.930;2023-06-19T09:09:48;29.00;90.50
13256;DHT22;37913;48.370;10.930;2023-06-19T09:12:15;28.30;91.20
13256;DHT22;37913;48.370;10.930;2023-06-19T09:14:44;28.70;90.80
13256;DHT22;37913;48.370;10.930;2023-06-19T09:17:13;29.20;90.20
13256;DHT22;37913;48.370;10.930;2023-06-19T09:19:47;28.90;90.20
13256;DHT22;37913;48.370;10.930;2023-06-19T09:22:18;28.80;89.90
13256;DHT22;37913;48.370;10.930;2023-06-19T09:24:45;28.70;90.30
13256;DHT22;37913;48.370;10.930;2023-06-19T09:27:13;29.10;90.00
13256;DHT22;37913;48.370;10.930;2023-06-19T09:29:44;29.40;89.70
13256;DHT22;37913;48.370;10.930;2023-06-19T09:32:17;30.30;88.30
13256;DHT22;37913;48.370;10.930;2023-06-19T09:34:45;31.50;84.00
13256;DHT22;37913;48.370;10.930;2023-06-19T09:37:13;32.20;82.20
13256;DHT22;37913;48.370;10.930;2023-06-19T09:39:42;32.80;79.50
13256;DHT22;37913;48.370;10.930;2023-06-19T09:42:13;31.60;80.90
13256;DHT22;37913;48.370;10.930;2023-06-19T09:44:43;31.70;80.70
13256;DHT22;37913;48.370;10.930;2023-06-19T09:47:16;30.50;83.30
13256;DHT22;37913;48.370;10.930;2023-06-19T09:49:48;30.60;83.10
13256;DHT22;37913;48.370;10.930;2023-06-19T09:52:17;29.00;85.70
13256;DHT22;37913;48.370;10.930;2023-06-19T09:54:47;28.10;89.40
13256;DHT22;37913;48.370;10.930;2023-06-19T09:57:16;27.80;90.50
13256;DHT22;37913;48.370;10.930;2023-06-19T09:59:46;27.70;90.80
13256;DHT22;37913;48.370;10.930;2023-06-19T10:02:15;27.60;91.10
13256;DHT22;37913;48.370;10.930;2023-06-19T10:04:44;27.40;91.80
13256;DHT22;37913;48.370;10.930;2023-06-19T10:07:18;27.50;91.70
13256;DHT22;37913;48.370;10.930;2023-06-19T10:10:01;27.00;92.40
13256;DHT22;37913;48.370;10.930;2023-06-19T10:12:40;27.70;92.50
13256;DHT22;37913;48.370;10.930;2023-06-19T10:15:15;28.90;91.70
13256;DHT22;37913;48.370;10.930;2023-06-19T10:17:44;29.50;90.10
13256;DHT22;37913;48.370;10.930;2023-06-19T10:20:22;29.30;88.20
13256;DHT22;37913;48.370;10.930;2023-06-19T10:22:56;29.00;90.40
13256;DHT22;37913;48.370;10.930;2023-06-19T10:25:27;30.40;89.10
13256;DHT22;37913;48.370;10.930;2023-06-19T10:27:55;30.80;88.30
13256;DHT22;37913;48.370;10.930;2023-06-19T10:30:23;31.80;83.80
13256;DHT22;37913;48.370;10.930;2023-06-19T10:32:50;33.20;81.10
13256;DHT22;37913;48.370;10.930;2023-06-19T10:35:18;37.10;72.60
13256;DHT22;37913;48.370;10.930;2023-06-19T10:37:47;38.80;63.40
13256;DHT22;37913;48.370;10.930;2023-06-19T10:40:16;39.90;60.10
13256;DHT22;37913;48.370;10.930;2023-06-19T10:42:45;40.20;59.20
13256;DHT22;37913;48.370;10.930;2023-06-19T10:45:13;40.20;57.60
13256;DHT22;37913;48.370;10.930;2023-06-19T10:47:42;42.00;56.00
13256;DHT22;37913;48.370;10.930;2023-06-19T10:50:13;38.10;58.50
13256;DHT22;37913;48.370;10.930;2023-06-19T10:52:41;40.40;56.80
13256;DHT22;37913;48.370;10.930;2023-06-19T10:55:10;41.70;53.50
13256;DHT22;37913;48.370;10.930;2023-06-19T10:57:38;42.30;53.50
13256;DHT22;37913;48.370;10.930;2023-06-19T11:00:08;42.90;51.40
13256;DHT22;37913;48.370;10.930;2023-06-19T11:02:40;37.90;53.90
13256;DHT22;37913;48.370;10.930;2023-06-19T11:05:10;34.80;57.70
13256;DHT22;37913;48.370;10.930;2023-06-19T11:07:37;36.20;57.50
13256;DHT22;37913;48.370;10.930;2023-06-19T11:10:05;39.50;53.10
13256;DHT22;37913;48.370;10.930;2023-06-19T11:12:33;40.20;52.70
13256;DHT22;37913;48.370;10.930;2023-06-19T11:15:03;43.30;50.60
13256;DHT22;37913;48.370;10.930;2023-06-19T11:17:33;44.20;49.10
13256;DHT22;37913;48.370;10.930;2023-06-19T11:20:00;45.40;46.70
13256;DHT22;37913;48.370;10.930;2023-06-19T11:22:37;40.90;48.30
13256;DHT22;37913;48.370;10.930;2023-06-19T11:25:07;43.30;45.10
13256;DHT22;37913;48.370;10.930;2023-06-19T11:27:37;45.30;44.40
13256;DHT22;37913;48.370;10.930;2023-06-19T11:30:07;43.90;43.20
13256;DHT22;37913;48.370;10.930;2023-06-19T11:32:38;44.80;43.30
13256;DHT22;37913;48.370;10.930;2023-06-19T11:35:09;45.60;42.80
13256;DHT22;37913;48.370;10.930;2023-06-19T11:37:39;43.50;43.50
13256;DHT22;37913;48.370;10.930;2023-06-19T11:40:07;45.00;43.20
13256;DHT22;37913;48.370;10.930;2023-06-19T11:42:47;41.50;45.00
13256;DHT22;37913;48.370;10.930;2023-06-19T11:45:15;42.00;45.20
13256;DHT22;37913;48.370;10.930;2023-06-19T11:47:47;43.10;45.40
13256;DHT22;37913;48.370;10.930;2023-06-19T11:50:16;45.20;42.50
13256;DHT22;37913;48.370;10.930;2023-06-19T11:52:46;47.70;41.60
13256;DHT22;37913;48.370;10.930;2023-06-19T11:55:13;49.10;39.20
13256;DHT22;37913;48.370;10.930;2023-06-19T11:57:41;49.10;38.10
13256;DHT22;37913;48.370;10.930;2023-06-19T12:00:16;49.20;38.40
13256;DHT22;37913;48.370;10.930;2023-06-19T12:02:44;46.60;39.90
13256;DHT22;37913;48.370;10.930;2023-06-19T12:05:13;47.60;38.90
13256;DHT22;37913;48.370;10.930;2023-06-19T12:07:41;45.40;40.70
13256;DHT22;37913;48.370;10.930;2023-06-19T12:10:08;45.00;40.70
13256;DHT22;37913;48.370;10.930;2023-06-19T12:12:37;44.10;41.80
13256;DHT22;37913;48.370;10.930;2023-06-19T12:15:05;45.80;40.70
13256;DHT22;37913;48.370;10.930;2023-06-19T12:17:33;45.70;40.10
13256;DHT22;37913;48.370;10.930;2023-06-19T12:20:00;47.30;39.50
13256;DHT22;37913;48.370;10.930;2023-06-19T12:22:29;48.50;37.80
13256;DHT22;37913;48.370;10.930;2023-06-19T12:24:56;41.00;42.90
13256;DHT22;37913;48.370;10.930;2023-06-19T12:27:23;41.10;44.70
13256;DHT22;37913;48.370;10.930;2023-06-19T12:29:49;43.80;40.80
13256;DHT22;37913;48.370;10.930;2023-06-19T12:32:16;36.80;47.70
13256;DHT22;37913;48.370;10.930;2023-06-19T12:34:43;37.50;47.10
13256;DHT22;37913;48.370;10.930;2023-06-19T12:37:14;37.80;47.50
13256;DHT22;37913;48.370;10.930;2023-06-19T12:39:45;41.90;43.90
13256;DHT22;37913;48.370;10.930;2023-06-19T12:42:13;44.10;42.00
13256;DHT22;37913;48.370;10.930;2023-06-19T12:44:40;44.50;39.80
13256;DHT22;37913;48.370;10.930;2023-06-19T12:47:08;45.60;38.80
13256;DHT22;37913;48.370;10.930;2023-06-19T12:49:35;47.00;37.30
13256;DHT22;37913;48.370;10.930;2023-06-19T12:52:02;48.30;35.00
13256;DHT22;37913;48.370;10.930;2023-06-19T12:54:29;49.60;35.10
13256;DHT22;37913;48.370;10.930;2023-06-19T12:56:58;50.60;33.70
13256;DHT22;37913;48.370;10.930;2023-06-19T12:59:25;50.30;32.60
13256;DHT22;37913;48.370;10.930;2023-06-19T13:01:52;46.70;36.50
13256;DHT22;37913;48.370;10.930;2023-06-19T13:04:19;46.80;36.40
13256;DHT22;37913;48.370;10.930;2023-06-19T13:06:46;48.30;35.70
13256;DHT22;37913;48.370;10.930;2023-06-19T13:09:13;47.90;35.10
13256;DHT22;37913;48.370;10.930;2023-06-19T13:11:41;45.70;37.10
13256;DHT22;37913;48.370;10.930;2023-06-19T13:14:09;46.90;35.10
13256;DHT22;37913;48.370;10.930;2023-06-19T13:16:36;44.30;37.10
13256;DHT22;37913;48.370;10.930;2023-06-19T13:19:03;42.90;38.90
13256;DHT22;37913;48.370;10.930;2023-06-19T13:21:30;45.40;37.10
13256;DHT22;37913;48.370;10.930;2023-06-19T13:23:57;46.30;36.60
13256;DHT22;37913;48.370;10.930;2023-06-19T13:26:24;45.80;37.00
13256;DHT22;37913;48.370;10.930;2023-06-19T13:28:51;42.50;38.10
13256;DHT22;37913;48.370;10.930;2023-06-19T13:31:19;41.90;40.10
13256;DHT22;37913;48.370;10.930;2023-06-19T13:33:46;43.50;39.10
13256;DHT22;37913;48.370;10.930;2023-06-19T13:36:13;41.10;40.60
13256;DHT22;37913;48.370;10.930;2023-06-19T13:38:41;41.40;39.70
13256;DHT22;37913;48.370;10.930;2023-06-19T13:41:09;39.50;41.80
13256;DHT22;37913;48.370;10.930;2023-06-19T13:43:40;39.60;42.40
13256;DHT22;37913;48.370;10.930;2023-06-19T13:46:08;39.20;41.90
13256;DHT22;37913;48.370;10.930;2023-06-19T13:48:36;37.10;44.10
13256;DHT22;37913;48.370;10.930;2023-06-19T13:51:03;36.70;44.90
13256;DHT22;37913;48.370;10.930;2023-06-19T13:53:30;36.80;45.30
13256;DHT22;37913;48.370;10.930;2023-06-19T13:56:03;36.20;46.30
13256;DHT22;37913;48.370;10.930;2023-06-19T13:58:30;33.50;49.50
13256;DHT22;37913;48.370;10.930;2023-06-19T14:01:05;31.90;51.70
13256;DHT22;37913;48.370;10.930;2023-06-19T14:03:32;32.60;51.30
13256;DHT22;37913;48.370;10.930;2023-06-19T14:06:03;32.70;50.90
13256;DHT22;37913;48.370;10.930;2023-06-19T14:08:30;33.20;51.50
13256;DHT22;37913;48.370;10.930;2023-06-19T14:10:57;33.60;51.50
13256;DHT22;37913;48.370;10.930;2023-06-19T14:13:26;33.90;50.10
13256;DHT22;37913;48.370;10.930;2023-06-19T14:15:53;32.70;51.10
13256;DHT22;37913;48.370;10.930;2023-06-19T14:18:20;32.60;52.50
13256;DHT22;37913;48.370;10.930;2023-06-19T14:20:47;32.90;51.70
13256;DHT22;37913;48.370;10.930;2023-06-19T14:23:16;33.10;51.10
13256;DHT22;37913;48.370;10.930;2023-06-19T14:25:43;33.30;50.60
13256;DHT22;37913;48.370;10.930;2023-06-19T14:28:12;33.00;51.60
13256;DHT22;37913;48.370;10.930;2023-06-19T14:30:42;32.80;52.00
13256;DHT22;37913;48.370;10.930;2023-06-19T14:33:09;33.00;51.80
13256;DHT22;37913;48.370;10.930;2023-06-19T14:35:41;32.70;52.30
13256;DHT22;37913;48.370;10.930;2023-06-19T14:38:13;32.50;51.80
13256;DHT22;37913;48.370;10.930;2023-06-19T14:40:43;32.40;52.40
13256;DHT22;37913;48.370;10.930;2023-06-19T14:43:14;32.10;52.80
13256;DHT22;37913;48.370;10.930;2023-06-19T14:45:43;32.00;53.00
13256;DHT22;37913;48.370;10.930;2023-06-19T14:48:13;32.20;52.90
13256;DHT22;37913;48.370;10.930;2023-06-19T14:50:41;32.40;52.20
13256;DHT22;37913;48.370;10.930;2023-06-19T14:53:13;31.70;53.50
13256;DHT22;37913;48.370;10.930;2023-06-19T14:55:40;31.60;53.00
13256;DHT22;37913;48.370;10.930;2023-06-19T14:58:12;32.00;53.00
13256;DHT22;37913;48.370;10.930;2023-06-19T15:00:41;32.20;53.00
13256;DHT22;37913;48.370;10.930;2023-06-19T15:03:09;32.30;53.10
13256;DHT22;37913;48.370;10.930;2023-06-19T15:05:39;32.40;52.40
13256;DHT22;37913;48.370;10.930;2023-06-19T15:08:07;32.50;52.40
13256;DHT22;37913;48.370;10.930;2023-06-19T15:10:35;32.60;52.50
13256;DHT22;37913;48.370;10.930;2023-06-19T15:13:02;32.60;52.60
13256;DHT22;37913;48.370;10.930;2023-06-19T15:15:31;32.60;52.40
13256;DHT22;37913;48.370;10.930;2023-06-19T15:17:58;32.60;52.10
13256;DHT22;37913;48.370;10.930;2023-06-19T15:20:26;32.70;52.70
13256;DHT22;37913;48.370;10.930;2023-06-19T15:22:53;32.80;54.10
13256;DHT22;37913;48.370;10.930;2023-06-19T15:25:22;32.90;54.80